GLE Airport (Gainesville Muni) Information

FAA: GLE - ICAO: KGLE

GLE Airport Location

State Texas
County Cooke
City Gainesville
GLE Airport is 3 miles west of Gainesville, TX.
Latitude 33-39-07.9000N
Longitude 097-11-50.2000W
Elevation 845ft

KGLE Airport METARs

METAR KGLE 251535Z AUTO 07005KT 10SM CLR 19/14 A3004 RMK AO2 T01930141
Altimeter 30.04"
Temperature 19.3°C (66.7°F)
Wind 70° at 5KT
Clouds Skies are clear.
Visibility 10.0mi
Time observed: 2021-10-25T15:35:00Z

GLE Airport Details

Status Operational
Activation July 1943
Ownership Public
Usage Public
Chart DALLAS-FT WORTH
ATC on-site No
Beacon schedule sunset-sunrise
Beacon color clear green

GLE Airport Contacts

Owner CITY OF GAINESVILLE
Owner address 200 S. RUSK, GAINESVILLE, TX 76240
Owner phone 940-668-4500
Manager N/A
Manager address N/A, N/A
Manager phone N/A

GLE Airport (Gainesville Muni) Radio Frequencies

GLE (Airport) Radio Frequencies

UNICOM 123
Common traffic advisory frequency (CTAF) 123